sensor_id;sensor_type;location;lat;lon;timestamp;P1;durP1;ratioP1;P2;durP2;ratioP2
40953;SDS011;26686;50.130;8.710;2023-12-14T00:00:29;8.50;;;7.15;;
40953;SDS011;26686;50.130;8.710;2023-12-14T00:05:30;9.70;;;8.25;;
40953;SDS011;26686;50.130;8.710;2023-12-14T00:10:32;10.23;;;8.88;;
40953;SDS011;26686;50.130;8.710;2023-12-14T00:15:34;9.18;;;8.38;;
40953;SDS011;26686;50.130;8.710;2023-12-14T00:20:35;9.82;;;8.38;;
40953;SDS011;26686;50.130;8.710;2023-12-14T00:25:36;12.05;;;8.25;;
40953;SDS011;26686;50.130;8.710;2023-12-14T00:30:38;9.43;;;8.52;;
40953;SDS011;26686;50.130;8.710;2023-12-14T00:35:40;10.40;;;9.35;;
40953;SDS011;26686;50.130;8.710;2023-12-14T00:40:44;10.77;;;9.17;;
40953;SDS011;26686;50.130;8.710;2023-12-14T00:45:47;10.07;;;8.75;;
40953;SDS011;26686;50.130;8.710;2023-12-14T00:50:48;10.93;;;9.30;;
40953;SDS011;26686;50.130;8.710;2023-12-14T00:55:50;9.70;;;8.80;;
40953;SDS011;26686;50.130;8.710;2023-12-14T01:00:51;11.02;;;8.70;;
40953;SDS011;26686;50.130;8.710;2023-12-14T01:05:55;12.47;;;9.80;;
40953;SDS011;26686;50.130;8.710;2023-12-14T01:10:57;15.38;;;12.80;;
40953;SDS011;26686;50.130;8.710;2023-12-14T01:15:59;14.98;;;12.07;;
40953;SDS011;26686;50.130;8.710;2023-12-14T01:21:00;18.00;;;12.20;;
40953;SDS011;26686;50.130;8.710;2023-12-14T01:26:01;16.20;;;12.52;;
40953;SDS011;26686;50.130;8.710;2023-12-14T01:31:04;16.63;;;13.32;;
40953;SDS011;26686;50.130;8.710;2023-12-14T01:36:09;17.95;;;13.27;;
40953;SDS011;26686;50.130;8.710;2023-12-14T01:41:12;17.35;;;13.82;;
40953;SDS011;26686;50.130;8.710;2023-12-14T01:46:15;17.65;;;12.32;;
40953;SDS011;26686;50.130;8.710;2023-12-14T01:51:17;16.08;;;12.00;;
40953;SDS011;26686;50.130;8.710;2023-12-14T01:56:19;14.45;;;11.93;;
40953;SDS011;26686;50.130;8.710;2023-12-14T02:06:27;16.15;;;11.15;;
40953;SDS011;26686;50.130;8.710;2023-12-14T02:11:28;15.15;;;12.02;;
40953;SDS011;26686;50.130;8.710;2023-12-14T02:16:30;16.25;;;11.95;;
40953;SDS011;26686;50.130;8.710;2023-12-14T02:21:33;19.75;;;12.13;;
40953;SDS011;26686;50.130;8.710;2023-12-14T02:26:34;16.38;;;12.40;;
40953;SDS011;26686;50.130;8.710;2023-12-14T02:31:36;17.90;;;12.82;;
40953;SDS011;26686;50.130;8.710;2023-12-14T02:36:38;14.43;;;10.07;;
40953;SDS011;26686;50.130;8.710;2023-12-14T02:41:39;11.88;;;8.60;;
40953;SDS011;26686;50.130;8.710;2023-12-14T02:46:40;12.98;;;9.05;;
40953;SDS011;26686;50.130;8.710;2023-12-14T02:51:42;14.95;;;8.80;;
40953;SDS011;26686;50.130;8.710;2023-12-14T02:56:44;14.60;;;10.35;;
40953;SDS011;26686;50.130;8.710;2023-12-14T03:01:45;15.82;;;10.27;;
40953;SDS011;26686;50.130;8.710;2023-12-14T03:06:47;16.10;;;10.27;;
40953;SDS011;26686;50.130;8.710;2023-12-14T03:11:49;14.02;;;10.23;;
40953;SDS011;26686;50.130;8.710;2023-12-14T03:16:50;16.45;;;11.38;;
40953;SDS011;26686;50.130;8.710;2023-12-14T03:21:52;14.50;;;11.20;;
40953;SDS011;26686;50.130;8.710;2023-12-14T03:26:53;12.75;;;10.13;;
40953;SDS011;26686;50.130;8.710;2023-12-14T03:31:55;14.65;;;10.30;;
40953;SDS011;26686;50.130;8.710;2023-12-14T03:36:57;9.98;;;8.75;;
40953;SDS011;26686;50.130;8.710;2023-12-14T03:41:58;12.48;;;10.38;;
40953;SDS011;26686;50.130;8.710;2023-12-14T03:47:01;12.70;;;10.35;;
40953;SDS011;26686;50.130;8.710;2023-12-14T03:52:03;12.95;;;10.73;;
40953;SDS011;26686;50.130;8.710;2023-12-14T03:57:05;14.95;;;11.60;;
40953;SDS011;26686;50.130;8.710;2023-12-14T04:02:06;16.10;;;10.73;;
40953;SDS011;26686;50.130;8.710;2023-12-14T04:07:08;14.73;;;11.43;;
40953;SDS011;26686;50.130;8.710;2023-12-14T04:12:10;13.93;;;10.23;;
40953;SDS011;26686;50.130;8.710;2023-12-14T04:17:11;12.05;;;9.50;;
40953;SDS011;26686;50.130;8.710;2023-12-14T04:22:13;12.05;;;9.85;;
40953;SDS011;26686;50.130;8.710;2023-12-14T04:27:15;13.40;;;10.18;;
40953;SDS011;26686;50.130;8.710;2023-12-14T04:32:17;11.90;;;10.55;;
40953;SDS011;26686;50.130;8.710;2023-12-14T04:37:18;14.30;;;11.43;;
40953;SDS011;26686;50.130;8.710;2023-12-14T04:42:20;13.10;;;11.80;;
40953;SDS011;26686;50.130;8.710;2023-12-14T04:47:21;14.32;;;11.20;;
40953;SDS011;26686;50.130;8.710;2023-12-14T04:52:25;15.10;;;11.27;;
40953;SDS011;26686;50.130;8.710;2023-12-14T04:57:26;13.68;;;10.43;;
40953;SDS011;26686;50.130;8.710;2023-12-14T05:02:28;14.20;;;11.75;;
40953;SDS011;26686;50.130;8.710;2023-12-14T05:07:29;18.17;;;11.63;;
40953;SDS011;26686;50.130;8.710;2023-12-14T05:12:33;15.23;;;11.77;;
40953;SDS011;26686;50.130;8.710;2023-12-14T05:17:34;15.07;;;11.50;;
40953;SDS011;26686;50.130;8.710;2023-12-14T05:22:38;12.03;;;10.53;;
40953;SDS011;26686;50.130;8.710;2023-12-14T05:27:41;11.32;;;10.23;;
40953;SDS011;26686;50.130;8.710;2023-12-14T05:32:42;12.63;;;10.65;;
40953;SDS011;26686;50.130;8.710;2023-12-14T05:37:44;11.57;;;9.32;;
40953;SDS011;26686;50.130;8.710;2023-12-14T05:42:47;10.35;;;9.32;;
40953;SDS011;26686;50.130;8.710;2023-12-14T05:47:49;10.90;;;9.00;;
40953;SDS011;26686;50.130;8.710;2023-12-14T05:52:50;25.88;;;23.40;;
40953;SDS011;26686;50.130;8.710;2023-12-14T05:57:52;16.42;;;14.80;;
40953;SDS011;26686;50.130;8.710;2023-12-14T06:02:56;28.33;;;25.85;;
40953;SDS011;26686;50.130;8.710;2023-12-14T06:07:57;11.90;;;10.65;;
40953;SDS011;26686;50.130;8.710;2023-12-14T06:13:01;13.57;;;11.27;;
40953;SDS011;26686;50.130;8.710;2023-12-14T06:18:03;10.70;;;9.60;;
40953;SDS011;26686;50.130;8.710;2023-12-14T06:23:07;11.27;;;9.00;;
40953;SDS011;26686;50.130;8.710;2023-12-14T06:28:10;12.35;;;9.73;;
40953;SDS011;26686;50.130;8.710;2023-12-14T06:33:11;15.20;;;8.93;;
40953;SDS011;26686;50.130;8.710;2023-12-14T06:38:19;10.18;;;7.85;;
40953;SDS011;26686;50.130;8.710;2023-12-14T06:43:22;9.48;;;7.47;;
40953;SDS011;26686;50.130;8.710;2023-12-14T06:48:25;11.15;;;8.73;;
40953;SDS011;26686;50.130;8.710;2023-12-14T06:53:27;8.95;;;7.80;;
40953;SDS011;26686;50.130;8.710;2023-12-14T06:58:32;10.57;;;7.53;;
40953;SDS011;26686;50.130;8.710;2023-12-14T07:03:35;9.55;;;8.00;;
40953;SDS011;26686;50.130;8.710;2023-12-14T07:08:37;12.05;;;10.77;;
40953;SDS011;26686;50.130;8.710;2023-12-14T07:13:38;12.32;;;9.95;;
40953;SDS011;26686;50.130;8.710;2023-12-14T07:18:41;10.82;;;9.70;;
40953;SDS011;26686;50.130;8.710;2023-12-14T07:23:43;12.18;;;9.98;;
40953;SDS011;26686;50.130;8.710;2023-12-14T07:28:44;10.85;;;9.75;;
40953;SDS011;26686;50.130;8.710;2023-12-14T07:33:46;10.25;;;9.07;;
40953;SDS011;26686;50.130;8.710;2023-12-14T07:38:47;18.73;;;9.85;;
40953;SDS011;26686;50.130;8.710;2023-12-14T07:43:51;9.88;;;8.18;;
40953;SDS011;26686;50.130;8.710;2023-12-14T07:48:52;12.38;;;7.40;;
40953;SDS011;26686;50.130;8.710;2023-12-14T07:53:54;10.95;;;7.97;;
40953;SDS011;26686;50.130;8.710;2023-12-14T07:58:55;8.80;;;7.68;;
40953;SDS011;26686;50.130;8.710;2023-12-14T08:03:57;11.55;;;8.45;;
40953;SDS011;26686;50.130;8.710;2023-12-14T08:08:58;9.18;;;7.78;;
40953;SDS011;26686;50.130;8.710;2023-12-14T08:14:00;12.50;;;8.27;;
40953;SDS011;26686;50.130;8.710;2023-12-14T08:19:02;8.80;;;7.90;;
40953;SDS011;26686;50.130;8.710;2023-12-14T08:24:03;10.68;;;7.63;;
40953;SDS011;26686;50.130;8.710;2023-12-14T08:29:05;10.40;;;7.50;;
40953;SDS011;26686;50.130;8.710;2023-12-14T08:34:07;8.07;;;7.28;;
40953;SDS011;26686;50.130;8.710;2023-12-14T08:39:09;11.10;;;8.68;;
40953;SDS011;26686;50.130;8.710;2023-12-14T08:44:12;10.27;;;7.85;;
40953;SDS011;26686;50.130;8.710;2023-12-14T08:49:15;11.43;;;8.68;;
40953;SDS011;26686;50.130;8.710;2023-12-14T08:54:17;8.90;;;8.00;;
40953;SDS011;26686;50.130;8.710;2023-12-14T08:59:19;9.90;;;8.25;;
40953;SDS011;26686;50.130;8.710;2023-12-14T09:04:22;12.70;;;9.65;;
40953;SDS011;26686;50.130;8.710;2023-12-14T09:09:23;10.82;;;9.70;;
40953;SDS011;26686;50.130;8.710;2023-12-14T09:14:25;13.05;;;9.88;;
40953;SDS011;26686;50.130;8.710;2023-12-14T09:19:29;11.65;;;10.18;;
40953;SDS011;26686;50.130;8.710;2023-12-14T09:24:32;13.35;;;10.68;;
40953;SDS011;26686;50.130;8.710;2023-12-14T09:29:34;12.65;;;10.52;;
40953;SDS011;26686;50.130;8.710;2023-12-14T09:34:37;13.00;;;10.00;;
40953;SDS011;26686;50.130;8.710;2023-12-14T09:39:39;12.57;;;10.02;;
40953;SDS011;26686;50.130;8.710;2023-12-14T09:44:40;15.00;;;11.50;;
40953;SDS011;26686;50.130;8.710;2023-12-14T09:49:46;14.10;;;10.25;;
40953;SDS011;26686;50.130;8.710;2023-12-14T09:54:50;13.77;;;11.70;;
40953;SDS011;26686;50.130;8.710;2023-12-14T09:59:55;9.73;;;8.75;;
40953;SDS011;26686;50.130;8.710;2023-12-14T10:04:57;11.35;;;9.43;;
40953;SDS011;26686;50.130;8.710;2023-12-14T10:10:20;10.40;;;9.30;;
40953;SDS011;26686;50.130;8.710;2023-12-14T10:15:21;10.32;;;9.00;;
40953;SDS011;26686;50.130;8.710;2023-12-14T10:20:25;12.23;;;9.77;;
40953;SDS011;26686;50.130;8.710;2023-12-14T10:25:29;10.35;;;8.73;;
40953;SDS011;26686;50.130;8.710;2023-12-14T10:30:31;10.50;;;8.88;;
40953;SDS011;26686;50.130;8.710;2023-12-14T10:35:35;9.23;;;8.27;;
40953;SDS011;26686;50.130;8.710;2023-12-14T10:40:38;8.82;;;7.93;;
40953;SDS011;26686;50.130;8.710;2023-12-14T10:45:44;8.43;;;7.00;;
40953;SDS011;26686;50.130;8.710;2023-12-14T10:50:50;8.35;;;6.60;;
40953;SDS011;26686;50.130;8.710;2023-12-14T10:55:54;6.75;;;6.03;;
40953;SDS011;26686;50.130;8.710;2023-12-14T11:01:01;5.72;;;4.88;;
40953;SDS011;26686;50.130;8.710;2023-12-14T11:11:16;3.75;;;2.72;;
40953;SDS011;26686;50.130;8.710;2023-12-14T11:16:24;2.72;;;2.15;;
40953;SDS011;26686;50.130;8.710;2023-12-14T11:21:29;3.15;;;2.40;;
40953;SDS011;26686;50.130;8.710;2023-12-14T11:26:31;2.55;;;1.95;;
40953;SDS011;26686;50.130;8.710;2023-12-14T11:31:32;3.28;;;2.42;;
40953;SDS011;26686;50.130;8.710;2023-12-14T11:36:35;2.20;;;1.98;;
40953;SDS011;26686;50.130;8.710;2023-12-14T11:41:40;2.55;;;2.35;;
40953;SDS011;26686;50.130;8.710;2023-12-14T11:46:41;3.92;;;1.88;;
40953;SDS011;26686;50.130;8.710;2023-12-14T11:51:45;2.50;;;2.30;;
40953;SDS011;26686;50.130;8.710;2023-12-14T11:56:48;2.28;;;1.70;;
40953;SDS011;26686;50.130;8.710;2023-12-14T12:01:54;3.45;;;3.15;;
40953;SDS011;26686;50.130;8.710;2023-12-14T12:06:59;2.05;;;1.85;;
40953;SDS011;26686;50.130;8.710;2023-12-14T12:12:10;1.42;;;1.08;;
40953;SDS011;26686;50.130;8.710;2023-12-14T12:17:13;1.52;;;1.10;;
40953;SDS011;26686;50.130;8.710;2023-12-14T12:22:15;2.55;;;1.70;;
40953;SDS011;26686;50.130;8.710;2023-12-14T12:27:18;2.90;;;2.33;;
40953;SDS011;26686;50.130;8.710;2023-12-14T12:32:19;2.15;;;1.33;;
40953;SDS011;26686;50.130;8.710;2023-12-14T12:37:22;3.05;;;1.70;;
40953;SDS011;26686;50.130;8.710;2023-12-14T12:42:24;3.15;;;1.95;;
40953;SDS011;26686;50.130;8.710;2023-12-14T12:47:27;2.35;;;2.15;;
40953;SDS011;26686;50.130;8.710;2023-12-14T12:52:28;2.25;;;1.80;;
40953;SDS011;26686;50.130;8.710;2023-12-14T12:57:33;2.38;;;2.10;;
40953;SDS011;26686;50.130;8.710;2023-12-14T13:02:35;2.20;;;1.77;;
40953;SDS011;26686;50.130;8.710;2023-12-14T13:07:40;1.98;;;1.75;;
40953;SDS011;26686;50.130;8.710;2023-12-14T13:12:43;1.63;;;1.48;;
40953;SDS011;26686;50.130;8.710;2023-12-14T13:17:44;2.30;;;1.30;;
40953;SDS011;26686;50.130;8.710;2023-12-14T13:22:46;3.10;;;1.83;;
40953;SDS011;26686;50.130;8.710;2023-12-14T13:27:48;2.20;;;1.40;;
40953;SDS011;26686;50.130;8.710;2023-12-14T13:32:49;3.22;;;2.92;;
40953;SDS011;26686;50.130;8.710;2023-12-14T13:37:51;1.75;;;1.40;;
40953;SDS011;26686;50.130;8.710;2023-12-14T13:42:52;2.80;;;2.17;;
40953;SDS011;26686;50.130;8.710;2023-12-14T13:48:07;2.08;;;1.88;;
40953;SDS011;26686;50.130;8.710;2023-12-14T13:53:09;1.60;;;0.85;;
40953;SDS011;26686;50.130;8.710;2023-12-14T13:58:11;1.23;;;0.80;;
40953;SDS011;26686;50.130;8.710;2023-12-14T14:03:12;2.65;;;1.02;;
40953;SDS011;26686;50.130;8.710;2023-12-14T14:08:14;1.58;;;0.95;;
40953;SDS011;26686;50.130;8.710;2023-12-14T14:13:18;1.70;;;1.40;;
40953;SDS011;26686;50.130;8.710;2023-12-14T14:18:20;1.92;;;1.48;;
40953;SDS011;26686;50.130;8.710;2023-12-14T14:23:22;2.00;;;1.17;;
40953;SDS011;26686;50.130;8.710;2023-12-14T14:28:23;1.40;;;1.17;;
40953;SDS011;26686;50.130;8.710;2023-12-14T14:33:26;1.30;;;1.10;;
40953;SDS011;26686;50.130;8.710;2023-12-14T14:38:28;2.55;;;1.80;;
40953;SDS011;26686;50.130;8.710;2023-12-14T14:43:30;1.98;;;1.55;;
40953;SDS011;26686;50.130;8.710;2023-12-14T14:48:31;1.75;;;1.50;;
40953;SDS011;26686;50.130;8.710;2023-12-14T14:53:33;2.08;;;1.85;;
40953;SDS011;26686;50.130;8.710;2023-12-14T14:58:34;3.63;;;2.67;;
40953;SDS011;26686;50.130;8.710;2023-12-14T15:03:35;3.40;;;2.60;;
40953;SDS011;26686;50.130;8.710;2023-12-14T15:08:37;3.03;;;2.47;;
40953;SDS011;26686;50.130;8.710;2023-12-14T15:13:41;3.17;;;2.47;;
40953;SDS011;26686;50.130;8.710;2023-12-14T15:18:43;3.33;;;2.60;;
40953;SDS011;26686;50.130;8.710;2023-12-14T15:23:44;3.38;;;2.50;;
40953;SDS011;26686;50.130;8.710;2023-12-14T15:28:48;4.15;;;3.42;;
40953;SDS011;26686;50.130;8.710;2023-12-14T15:33:50;4.32;;;3.47;;
40953;SDS011;26686;50.130;8.710;2023-12-14T15:38:52;3.55;;;3.17;;
40953;SDS011;26686;50.130;8.710;2023-12-14T15:43:53;3.20;;;2.70;;
40953;SDS011;26686;50.130;8.710;2023-12-14T15:48:56;2.85;;;2.60;;
40953;SDS011;26686;50.130;8.710;2023-12-14T15:53:58;3.10;;;2.38;;
40953;SDS011;26686;50.130;8.710;2023-12-14T15:59:00;3.17;;;2.15;;
40953;SDS011;26686;50.130;8.710;2023-12-14T16:04:02;3.15;;;2.35;;
40953;SDS011;26686;50.130;8.710;2023-12-14T16:09:04;3.38;;;2.38;;
40953;SDS011;26686;50.130;8.710;2023-12-14T16:14:06;3.22;;;2.60;;
40953;SDS011;26686;50.130;8.710;2023-12-14T16:19:08;5.65;;;4.80;;
40953;SDS011;26686;50.130;8.710;2023-12-14T16:24:12;5.60;;;4.97;;
40953;SDS011;26686;50.130;8.710;2023-12-14T16:29:14;4.18;;;3.67;;
40953;SDS011;26686;50.130;8.710;2023-12-14T16:34:15;3.45;;;2.85;;
40953;SDS011;26686;50.130;8.710;2023-12-14T16:39:18;3.60;;;3.08;;
40953;SDS011;26686;50.130;8.710;2023-12-14T16:44:21;3.03;;;2.47;;
40953;SDS011;26686;50.130;8.710;2023-12-14T16:49:26;3.83;;;3.07;;
40953;SDS011;26686;50.130;8.710;2023-12-14T16:54:28;4.85;;;3.05;;
40953;SDS011;26686;50.130;8.710;2023-12-14T16:59:31;3.28;;;2.88;;
40953;SDS011;26686;50.130;8.710;2023-12-14T17:04:32;3.63;;;2.70;;
40953;SDS011;26686;50.130;8.710;2023-12-14T17:09:34;5.68;;;3.88;;
40953;SDS011;26686;50.130;8.710;2023-12-14T17:14:35;4.68;;;3.90;;
40953;SDS011;26686;50.130;8.710;2023-12-14T17:19:37;3.40;;;2.90;;
40953;SDS011;26686;50.130;8.710;2023-12-14T17:24:39;2.80;;;1.88;;
40953;SDS011;26686;50.130;8.710;2023-12-14T17:29:41;2.28;;;1.90;;
40953;SDS011;26686;50.130;8.710;2023-12-14T17:34:42;3.17;;;2.35;;
40953;SDS011;26686;50.130;8.710;2023-12-14T17:39:44;3.20;;;2.90;;
40953;SDS011;26686;50.130;8.710;2023-12-14T17:44:46;3.28;;;2.88;;
40953;SDS011;26686;50.130;8.710;2023-12-14T17:49:48;4.32;;;2.05;;
40953;SDS011;26686;50.130;8.710;2023-12-14T17:54:49;2.75;;;2.42;;
40953;SDS011;26686;50.130;8.710;2023-12-14T17:59:53;4.20;;;3.30;;
40953;SDS011;26686;50.130;8.710;2023-12-14T18:04:55;3.38;;;2.58;;
40953;SDS011;26686;50.130;8.710;2023-12-14T18:09:56;4.10;;;2.65;;
40953;SDS011;26686;50.130;8.710;2023-12-14T18:14:58;3.67;;;3.20;;
40953;SDS011;26686;50.130;8.710;2023-12-14T18:20:00;4.72;;;3.95;;
40953;SDS011;26686;50.130;8.710;2023-12-14T18:25:03;5.43;;;4.20;;
40953;SDS011;26686;50.130;8.710;2023-12-14T18:30:05;5.70;;;4.75;;
40953;SDS011;26686;50.130;8.710;2023-12-14T18:35:12;6.13;;;5.22;;
40953;SDS011;26686;50.130;8.710;2023-12-14T18:40:13;8.18;;;4.97;;
40953;SDS011;26686;50.130;8.710;2023-12-14T18:45:19;7.15;;;5.65;;
40953;SDS011;26686;50.130;8.710;2023-12-14T18:50:21;8.43;;;6.10;;
40953;SDS011;26686;50.130;8.710;2023-12-14T18:55:23;7.13;;;5.25;;
40953;SDS011;26686;50.130;8.710;2023-12-14T19:00:24;8.60;;;7.28;;
40953;SDS011;26686;50.130;8.710;2023-12-14T19:05:26;5.78;;;4.60;;
40953;SDS011;26686;50.130;8.710;2023-12-14T19:10:28;5.47;;;4.45;;
40953;SDS011;26686;50.130;8.710;2023-12-14T19:15:29;7.97;;;5.38;;
40953;SDS011;26686;50.130;8.710;2023-12-14T19:20:31;5.60;;;4.63;;
40953;SDS011;26686;50.130;8.710;2023-12-14T19:25:33;5.55;;;4.70;;
40953;SDS011;26686;50.130;8.710;2023-12-14T19:30:35;7.18;;;5.43;;
40953;SDS011;26686;50.130;8.710;2023-12-14T19:35:38;7.55;;;5.13;;
40953;SDS011;26686;50.130;8.710;2023-12-14T19:40:40;6.68;;;5.15;;
40953;SDS011;26686;50.130;8.710;2023-12-14T19:45:41;6.47;;;5.57;;
40953;SDS011;26686;50.130;8.710;2023-12-14T19:50:43;5.82;;;4.82;;
40953;SDS011;26686;50.130;8.710;2023-12-14T19:55:47;8.48;;;6.15;;
40953;SDS011;26686;50.130;8.710;2023-12-14T20:00:48;6.35;;;5.40;;
40953;SDS011;26686;50.130;8.710;2023-12-14T20:05:50;6.90;;;5.68;;
40953;SDS011;26686;50.130;8.710;2023-12-14T20:10:53;7.38;;;5.60;;
40953;SDS011;26686;50.130;8.710;2023-12-14T20:15:54;8.75;;;6.05;;
40953;SDS011;26686;50.130;8.710;2023-12-14T20:20:57;8.10;;;7.18;;
40953;SDS011;26686;50.130;8.710;2023-12-14T20:25:58;10.50;;;7.35;;
40953;SDS011;26686;50.130;8.710;2023-12-14T20:31:00;10.35;;;9.25;;
40953;SDS011;26686;50.130;8.710;2023-12-14T20:36:03;11.27;;;7.07;;
40953;SDS011;26686;50.130;8.710;2023-12-14T20:41:05;8.23;;;6.78;;
40953;SDS011;26686;50.130;8.710;2023-12-14T20:46:19;8.27;;;5.95;;
40953;SDS011;26686;50.130;8.710;2023-12-14T20:51:20;8.27;;;6.63;;
40953;SDS011;26686;50.130;8.710;2023-12-14T20:56:24;10.98;;;7.57;;
40953;SDS011;26686;50.130;8.710;2023-12-14T21:01:31;9.85;;;7.78;;
40953;SDS011;26686;50.130;8.710;2023-12-14T21:06:33;12.98;;;9.68;;
40953;SDS011;26686;50.130;8.710;2023-12-14T21:11:35;7.68;;;5.95;;
40953;SDS011;26686;50.130;8.710;2023-12-14T21:16:37;7.13;;;6.05;;
40953;SDS011;26686;50.130;8.710;2023-12-14T21:21:38;6.35;;;5.57;;
40953;SDS011;26686;50.130;8.710;2023-12-14T21:26:40;7.38;;;5.38;;
40953;SDS011;26686;50.130;8.710;2023-12-14T21:32:04;7.28;;;6.13;;
40953;SDS011;26686;50.130;8.710;2023-12-14T21:37:06;5.97;;;4.68;;
40953;SDS011;26686;50.130;8.710;2023-12-14T21:42:07;5.90;;;4.57;;
40953;SDS011;26686;50.130;8.710;2023-12-14T21:47:11;5.53;;;4.80;;
40953;SDS011;26686;50.130;8.710;2023-12-14T21:52:12;6.30;;;4.80;;
40953;SDS011;26686;50.130;8.710;2023-12-14T21:57:14;5.80;;;4.95;;
40953;SDS011;26686;50.130;8.710;2023-12-14T22:02:16;6.45;;;5.50;;
40953;SDS011;26686;50.130;8.710;2023-12-14T22:07:17;8.75;;;5.32;;
40953;SDS011;26686;50.130;8.710;2023-12-14T22:12:21;7.37;;;5.77;;
40953;SDS011;26686;50.130;8.710;2023-12-14T22:17:22;7.47;;;5.95;;
40953;SDS011;26686;50.130;8.710;2023-12-14T22:22:24;7.97;;;6.45;;
40953;SDS011;26686;50.130;8.710;2023-12-14T22:27:25;8.52;;;6.47;;
40953;SDS011;26686;50.130;8.710;2023-12-14T22:32:27;8.55;;;6.63;;
40953;SDS011;26686;50.130;8.710;2023-12-14T22:37:29;9.07;;;7.30;;
40953;SDS011;26686;50.130;8.710;2023-12-14T22:42:31;9.93;;;8.30;;
40953;SDS011;26686;50.130;8.710;2023-12-14T22:47:32;10.75;;;9.25;;
40953;SDS011;26686;50.130;8.710;2023-12-14T22:52:35;12.82;;;8.85;;
40953;SDS011;26686;50.130;8.710;2023-12-14T22:57:40;11.60;;;8.50;;
40953;SDS011;26686;50.130;8.710;2023-12-14T23:02:44;10.95;;;8.95;;
40953;SDS011;26686;50.130;8.710;2023-12-14T23:07:45;11.45;;;10.15;;
40953;SDS011;26686;50.130;8.710;2023-12-14T23:12:48;11.80;;;9.48;;
40953;SDS011;26686;50.130;8.710;2023-12-14T23:17:50;12.13;;;9.48;;
40953;SDS011;26686;50.130;8.710;2023-12-14T23:22:56;12.25;;;9.65;;
40953;SDS011;26686;50.130;8.710;2023-12-14T23:27:57;13.50;;;10.68;;
40953;SDS011;26686;50.130;8.710;2023-12-14T23:32:59;11.93;;;9.70;;
40953;SDS011;26686;50.130;8.710;2023-12-14T23:38:01;11.60;;;9.35;;
40953;SDS011;26686;50.130;8.710;2023-12-14T23:43:04;12.40;;;10.25;;
40953;SDS011;26686;50.130;8.710;2023-12-14T23:48:07;11.85;;;9.88;;
40953;SDS011;26686;50.130;8.710;2023-12-14T23:53:08;11.73;;;9.45;;
40953;SDS011;26686;50.130;8.710;2023-12-14T23:58:10;11.77;;;9.57;;
